Terminal Aerodrome Forecast
Issued by NWS

Home | Current Version | Previous Version | Text Only | Print | Product List | Glossary On
Versions: 1 2 3 4 5 6 7 8 9 10 11 12 13 14 15 16 17 18 19 20 21 22 23 24 25 26 27 28 29 30 31 32 33 34 35 36 37 38 39 40 41 42 43 44 45 46 47 48 49 50
000
FTUS41 KOKX 271303 AAP
TAFTEB
TAF AMD
KTEB 271303Z 2713/2818 21005KT P6SM BKN012
      TEMPO 2713/2716 SCT012 SCT250
     FM271600 17007KT P6SM SCT015 BKN250
     FM280300 17004KT P6SM FEW008 BKN015 BKN250
     FM280500 16005KT 5SM BR BKN007 OVC015
     FM280900 15003KT 2SM BR OVC007
     FM281500 15009KT 4SM BR OVC007 PROB30 2816/2818 4SM -DZ OVC007=

USA.gov is the U.S. government's official web portal to all federal, state and local government web resources and services.